createdAt,value
2024-01-11T00:00:58.997Z,-6.08
2024-01-11T00:01:59.081Z,-6.06
2024-01-11T00:02:59.156Z,-6.09
2024-01-11T00:03:59.287Z,-6.10
2024-01-11T00:04:59.371Z,-6.13
2024-01-11T00:05:59.469Z,-6.16
2024-01-11T00:06:59.504Z,-6.16
2024-01-11T00:07:59.606Z,-6.14
2024-01-11T00:08:59.629Z,-6.14
2024-01-11T00:09:59.697Z,-6.17
2024-01-11T00:10:59.826Z,-6.19
2024-01-11T00:11:59.869Z,-6.17
2024-01-11T00:12:59.938Z,-6.17
2024-01-11T00:14:00.042Z,-6.17
2024-01-11T00:15:00.133Z,-6.16
2024-01-11T00:16:00.172Z,-6.14
2024-01-11T00:17:00.338Z,-6.10
2024-01-11T00:18:00.588Z,-6.10
2024-01-11T00:19:00.487Z,-6.13
2024-01-11T00:20:00.542Z,-6.13
2024-01-11T00:21:00.612Z,-6.14
2024-01-11T00:22:00.668Z,-6.14
2024-01-11T00:23:00.753Z,-6.17
2024-01-11T00:24:00.826Z,-6.16
2024-01-11T00:25:00.865Z,-6.14
2024-01-11T00:26:01.043Z,-6.13
2024-01-11T00:27:01.044Z,-6.10
2024-01-11T00:28:01.130Z,-6.13
2024-01-11T00:29:01.310Z,-6.10
2024-01-11T00:30:01.335Z,-6.10
2024-01-11T00:31:01.434Z,-6.09
2024-01-11T00:32:01.465Z,-6.09
2024-01-11T00:33:01.730Z,-6.09
2024-01-11T00:34:01.644Z,-6.10
2024-01-11T00:35:01.738Z,-6.09
2024-01-11T00:36:01.755Z,-6.13
2024-01-11T00:37:01.864Z,-6.13
2024-01-11T00:38:01.963Z,-6.10
2024-01-11T00:39:02.069Z,-6.09
2024-01-11T00:40:02.104Z,-6.09
2024-01-11T00:41:02.183Z,-6.08
2024-01-11T00:42:02.244Z,-6.09
2024-01-11T00:43:02.316Z,-6.10
2024-01-11T00:44:02.435Z,-6.14
2024-01-11T00:45:02.476Z,-6.13
2024-01-11T00:46:02.547Z,-6.14
2024-01-11T00:47:02.666Z,-6.13
2024-01-11T00:48:02.791Z,-6.16
2024-01-11T00:49:02.884Z,-6.16
2024-01-11T00:50:02.870Z,-6.16
2024-01-11T00:51:02.907Z,-6.19
2024-01-11T00:52:03.003Z,-6.16
2024-01-11T00:53:03.147Z,-6.16
2024-01-11T00:54:03.172Z,-6.16
2024-01-11T00:55:03.243Z,-6.16
2024-01-11T00:56:03.322Z,-6.14
2024-01-11T00:57:03.412Z,-6.14
2024-01-11T00:58:03.485Z,-6.13
2024-01-11T00:59:03.772Z,-6.13
2024-01-11T01:00:03.689Z,-6.14
2024-01-11T01:01:03.818Z,-6.14
2024-01-11T01:02:03.882Z,-6.10
2024-01-11T01:03:03.900Z,-6.08
2024-01-11T01:04:04.045Z,-6.08
2024-01-11T01:05:04.100Z,-6.05
2024-01-11T01:06:04.356Z,-6.05
2024-01-11T01:07:04.243Z,-6.03
2024-01-11T01:08:04.389Z,-6.05
2024-01-11T01:09:04.434Z,-6.08
2024-01-11T01:10:04.509Z,-6.09
2024-01-11T01:11:04.621Z,-6.10
2024-01-11T01:12:04.672Z,-6.10
2024-01-11T01:13:04.738Z,-6.09
2024-01-11T01:14:04.889Z,-6.08
2024-01-11T01:15:04.898Z,-6.08
2024-01-11T01:16:04.990Z,-6.06
2024-01-11T01:17:05.075Z,-6.08
2024-01-11T01:18:05.306Z,-6.08
2024-01-11T01:19:05.352Z,-6.08
2024-01-11T01:20:05.422Z,-6.08
2024-01-11T01:21:05.433Z,-6.08
2024-01-11T01:22:05.526Z,-6.08
2024-01-11T01:23:05.640Z,-6.09
2024-01-11T01:24:05.698Z,-6.10
2024-01-11T01:25:05.903Z,-6.10
2024-01-11T01:26:07.567Z,-6.16
2024-01-11T01:27:05.914Z,-6.10
2024-01-11T01:28:05.974Z,-6.10
2024-01-11T01:29:06.100Z,-6.13
2024-01-11T01:30:06.198Z,-6.13
2024-01-11T01:31:06.374Z,-6.16
2024-01-11T01:32:06.365Z,-6.17
2024-01-11T01:33:06.582Z,-6.17
2024-01-11T01:34:06.710Z,-6.20
2024-01-11T01:35:06.631Z,-6.23
2024-01-11T01:36:06.651Z,-6.24
2024-01-11T01:37:06.713Z,-6.29
2024-01-11T01:38:06.816Z,-6.29
2024-01-11T01:39:06.893Z,-6.29
2024-01-11T01:40:06.930Z,-6.31
2024-01-11T01:41:07.057Z,-6.34
2024-01-11T01:42:07.111Z,-6.31
2024-01-11T01:43:07.160Z,-6.31
2024-01-11T01:44:07.287Z,-6.26
2024-01-11T01:45:07.321Z,-6.23
2024-01-11T01:46:07.439Z,-6.21
2024-01-11T01:47:07.630Z,-6.19
2024-01-11T01:48:07.707Z,-6.20
2024-01-11T01:49:07.735Z,-6.19
2024-01-11T01:50:07.878Z,-6.21
2024-01-11T01:51:07.821Z,-6.20
2024-01-11T01:52:07.887Z,-6.19
2024-01-11T01:53:08.001Z,-6.19
2024-01-11T01:54:08.083Z,-6.24
2024-01-11T01:55:08.146Z,-6.26
2024-01-11T01:56:08.258Z,-6.27
2024-01-11T01:57:08.321Z,-6.27
2024-01-11T01:58:08.389Z,-6.24
2024-01-11T01:59:08.487Z,-6.24
2024-01-11T02:00:08.538Z,-6.26
2024-01-11T02:01:10.940Z,-6.24
2024-01-11T02:02:08.780Z,-6.24
2024-01-11T02:03:08.765Z,-6.23
2024-01-11T02:04:08.867Z,-6.26
2024-01-11T02:05:09.042Z,-6.27
2024-01-11T02:06:09.128Z,-6.24
2024-01-11T02:07:09.121Z,-6.21
2024-01-11T02:08:09.220Z,-6.20
2024-01-11T02:09:09.291Z,-6.21
2024-01-11T02:10:09.345Z,-6.23
2024-01-11T02:11:09.421Z,-6.24
2024-01-11T02:12:09.481Z,-6.23
2024-01-11T02:13:10.985Z,-6.21
2024-01-11T02:14:09.688Z,-6.21
2024-01-11T02:15:09.750Z,-6.24
2024-01-11T02:16:09.869Z,-6.27
2024-01-11T02:17:09.943Z,-6.26
2024-01-11T02:18:10.084Z,-6.27
2024-01-11T02:19:10.097Z,-6.29
2024-01-11T02:20:10.242Z,-6.27
2024-01-11T02:21:10.237Z,-6.27
2024-01-11T02:22:10.301Z,-6.31
2024-01-11T02:23:10.424Z,-6.34
2024-01-11T02:24:10.468Z,-6.34
2024-01-11T02:25:10.525Z,-6.35
2024-01-11T02:26:10.633Z,-6.35
2024-01-11T02:27:10.662Z,-6.35
2024-01-11T02:28:10.742Z,-6.35
2024-01-11T02:29:10.863Z,-6.35
2024-01-11T02:30:10.913Z,-6.39
2024-01-11T02:31:10.997Z,-6.41
2024-01-11T02:32:11.147Z,-6.41
2024-01-11T02:33:11.313Z,-6.39
2024-01-11T02:34:11.358Z,-6.39
2024-01-11T02:35:11.348Z,-6.38
2024-01-11T02:36:11.420Z,-6.39
2024-01-11T02:37:11.505Z,-6.41
2024-01-11T02:38:11.676Z,-6.42
2024-01-11T02:39:11.673Z,-6.42
2024-01-11T02:40:11.730Z,-6.44
2024-01-11T02:41:11.869Z,-6.41
2024-01-11T02:42:11.902Z,-6.41
2024-01-11T02:43:11.991Z,-6.35
2024-01-11T02:44:12.198Z,-6.37
2024-01-11T02:45:12.191Z,-6.35
2024-01-11T02:46:12.219Z,-6.37
2024-01-11T02:47:12.341Z,-6.38
2024-01-11T02:48:12.475Z,-6.41
2024-01-11T02:49:12.507Z,-6.44
2024-01-11T02:50:12.522Z,-6.47
2024-01-11T02:51:12.629Z,-6.47
2024-01-11T02:52:12.663Z,-6.50
2024-01-11T02:53:12.816Z,-6.50
2024-01-11T02:54:12.819Z,-6.52
2024-01-11T02:55:12.877Z,-6.52
2024-01-11T02:56:12.988Z,-6.53
2024-01-11T02:57:13.069Z,-6.53
2024-01-11T02:58:13.149Z,-6.55
2024-01-11T02:59:13.289Z,-6.59
2024-01-11T03:00:13.321Z,-6.60
2024-01-11T03:01:13.450Z,-6.61
2024-01-11T03:02:13.524Z,-6.59
2024-01-11T03:03:13.839Z,-6.59
2024-01-11T03:04:13.697Z,-6.56
2024-01-11T03:05:13.788Z,-6.55
2024-01-11T03:06:13.857Z,-6.53
2024-01-11T03:07:13.928Z,-6.50
2024-01-11T03:08:14.033Z,-6.48
2024-01-11T03:09:14.124Z,-6.47
2024-01-11T03:10:14.188Z,-6.44
2024-01-11T03:11:14.262Z,-6.42
2024-01-11T03:12:14.329Z,-6.42
2024-01-11T03:13:14.419Z,-6.41
2024-01-11T03:14:14.549Z,-6.41
2024-01-11T03:15:14.584Z,-6.39
2024-01-11T03:16:14.673Z,-6.38
2024-01-11T03:17:14.798Z,-6.38
2024-01-11T03:18:15.283Z,-6.39
2024-01-11T03:19:15.015Z,-6.41
2024-01-11T03:20:15.114Z,-6.44
2024-01-11T03:21:15.097Z,-6.47
2024-01-11T03:22:15.180Z,-6.48
2024-01-11T03:23:15.309Z,-6.50
2024-01-11T03:24:15.346Z,-6.50
2024-01-11T03:25:15.401Z,-6.48
2024-01-11T03:26:15.566Z,-6.48
2024-01-11T03:27:15.569Z,-6.48
2024-01-11T03:28:15.687Z,-6.48
2024-01-11T03:29:15.822Z,-6.52
2024-01-11T03:30:15.897Z,-6.50
2024-01-11T03:31:15.901Z,-6.48
2024-01-11T03:32:16.097Z,-6.47
2024-01-11T03:33:16.395Z,-6.48
2024-01-11T03:34:16.223Z,-6.47
2024-01-11T03:35:16.256Z,-6.48
2024-01-11T03:36:16.302Z,-6.47
2024-01-11T03:37:16.375Z,-6.42
2024-01-11T03:38:16.507Z,-6.42
2024-01-11T03:39:16.564Z,-6.44
2024-01-11T03:40:16.660Z,-6.39
2024-01-11T03:41:16.765Z,-6.38
2024-01-11T03:42:16.803Z,-6.39
2024-01-11T03:43:16.863Z,-6.41
2024-01-11T03:44:17.184Z,-6.44
2024-01-11T03:45:17.039Z,-6.44
2024-01-11T03:46:17.130Z,-6.41
2024-01-11T03:47:17.251Z,-6.38
2024-01-11T03:48:17.389Z,-6.39
2024-01-11T03:49:17.486Z,-6.39
2024-01-11T03:50:17.533Z,-6.42
2024-01-11T03:51:17.534Z,-6.44
2024-01-11T03:52:17.631Z,-6.44
2024-01-11T03:53:17.789Z,-6.44
2024-01-11T03:54:17.826Z,-6.44
2024-01-11T03:55:17.877Z,-6.42
2024-01-11T03:56:17.969Z,-6.44
2024-01-11T03:57:18.021Z,-6.44
2024-01-11T03:58:18.088Z,-6.45
2024-01-11T03:59:18.229Z,-6.45
2024-01-11T04:00:18.271Z,-6.47
2024-01-11T04:01:18.420Z,-6.48
2024-01-11T04:02:18.474Z,-6.48
2024-01-11T04:03:18.607Z,-6.47
2024-01-11T04:04:18.555Z,-6.48
2024-01-11T04:05:18.663Z,-6.45
2024-01-11T04:06:18.800Z,-6.47
2024-01-11T04:07:18.811Z,-6.52
2024-01-11T04:08:18.923Z,-6.52
2024-01-11T04:09:18.968Z,-6.48
2024-01-11T04:10:19.030Z,-6.50
2024-01-11T04:11:19.154Z,-6.50
2024-01-11T04:12:19.167Z,-6.48
2024-01-11T04:13:19.498Z,-6.47
2024-01-11T04:14:19.414Z,-6.53
2024-01-11T04:15:19.411Z,-6.55
2024-01-11T04:16:19.510Z,-6.56
2024-01-11T04:17:19.703Z,-6.53
2024-01-11T04:18:19.674Z,-6.55
2024-01-11T04:19:23.257Z,-6.56
2024-01-11T04:20:19.925Z,-6.59
2024-01-11T04:21:19.917Z,-6.59
2024-01-11T04:22:19.998Z,-6.55
2024-01-11T04:23:20.086Z,-6.50
2024-01-11T04:24:20.160Z,-6.48
2024-01-11T04:25:20.210Z,-6.47
2024-01-11T04:26:20.368Z,-6.44
2024-01-11T04:27:20.370Z,-6.42
2024-01-11T04:28:20.479Z,-6.41
2024-01-11T04:29:20.631Z,-6.42
2024-01-11T04:30:20.696Z,-6.45
2024-01-11T04:31:20.742Z,-6.45
2024-01-11T04:32:20.839Z,-6.47
2024-01-11T04:33:20.954Z,-6.50
2024-01-11T04:34:21.023Z,-6.52
2024-01-11T04:35:21.124Z,-6.48
2024-01-11T04:36:21.172Z,-6.50
2024-01-11T04:37:21.223Z,-6.48
2024-01-11T04:38:21.336Z,-6.55
2024-01-11T04:39:21.389Z,-6.53
2024-01-11T04:40:21.455Z,-6.50
2024-01-11T04:41:21.649Z,-6.50
2024-01-11T04:42:21.636Z,-6.50
2024-01-11T04:43:21.706Z,-6.52
2024-01-11T04:44:21.876Z,-6.48
2024-01-11T04:45:21.884Z,-6.50
2024-01-11T04:46:21.995Z,-6.52
2024-01-11T04:47:22.095Z,-6.52
2024-01-11T04:48:22.239Z,-6.55
2024-01-11T04:49:22.319Z,-6.56
2024-01-11T04:50:22.855Z,-6.56
2024-01-11T04:51:22.385Z,-6.55
2024-01-11T04:52:22.445Z,-6.56
2024-01-11T04:53:22.586Z,-6.56
2024-01-11T04:54:22.636Z,-6.63
2024-01-11T04:55:22.689Z,-6.63
2024-01-11T04:56:22.838Z,-6.64
2024-01-11T04:57:22.863Z,-6.66
2024-01-11T04:58:22.958Z,-6.66
2024-01-11T04:59:23.128Z,-6.66
2024-01-11T05:00:23.130Z,-6.66
2024-01-11T05:01:23.266Z,-6.67
2024-01-11T05:02:23.375Z,-6.66
2024-01-11T05:03:23.393Z,-6.64
2024-01-11T05:04:23.493Z,-6.61
2024-01-11T05:05:23.542Z,-6.60
2024-01-11T05:06:23.698Z,-6.60
2024-01-11T05:07:23.711Z,-6.61
2024-01-11T05:08:23.808Z,-6.61
2024-01-11T05:09:23.880Z,-6.64
2024-01-11T05:10:23.937Z,-6.66
2024-01-11T05:11:23.991Z,-6.66
2024-01-11T05:12:24.070Z,-6.67
2024-01-11T05:13:24.143Z,-6.71
2024-01-11T05:14:24.285Z,-6.74
2024-01-11T05:15:24.298Z,-6.74
2024-01-11T05:16:24.389Z,-6.77
2024-01-11T05:17:24.492Z,-6.78
2024-01-11T05:18:24.597Z,-6.74
2024-01-11T05:19:24.650Z,-6.75
2024-01-11T05:20:24.718Z,-6.72
2024-01-11T05:21:24.754Z,-6.71
2024-01-11T05:22:24.842Z,-6.71
2024-01-11T05:23:24.950Z,-6.74
2024-01-11T05:24:25.033Z,-6.78
2024-01-11T05:25:25.106Z,-6.75
2024-01-11T05:26:25.220Z,-6.74
2024-01-11T05:27:25.279Z,-6.71
2024-01-11T05:28:25.351Z,-6.67
2024-01-11T05:29:25.534Z,-6.60
2024-01-11T05:30:28.405Z,-6.55
2024-01-11T05:31:25.619Z,-6.48
2024-01-11T05:32:25.733Z,-6.47
2024-01-11T05:33:25.840Z,-6.47
2024-01-11T05:34:25.829Z,-6.47
2024-01-11T05:35:25.847Z,-6.47
2024-01-11T05:36:25.898Z,-6.48
2024-01-11T05:37:25.999Z,-6.52
2024-01-11T05:38:26.094Z,-6.53
2024-01-11T05:39:26.177Z,-6.56
2024-01-11T05:40:26.254Z,-6.56
2024-01-11T05:41:26.335Z,-6.55
2024-01-11T05:42:26.402Z,-6.56
2024-01-11T05:43:26.471Z,-6.59
2024-01-11T05:44:26.635Z,-6.55
2024-01-11T05:45:35.773Z,-6.53
2024-01-11T05:46:26.737Z,-6.53
2024-01-11T05:47:26.888Z,-6.59
2024-01-11T05:48:26.924Z,-6.60
2024-01-11T05:49:26.967Z,-6.63
2024-01-11T05:50:27.194Z,-6.64
2024-01-11T05:51:27.109Z,-6.67
2024-01-11T05:52:27.204Z,-6.67
2024-01-11T05:53:27.272Z,-6.66
2024-01-11T05:54:27.370Z,-6.67
2024-01-11T05:55:27.428Z,-6.67
2024-01-11T05:56:27.597Z,-6.67
2024-01-11T05:57:27.577Z,-6.67
2024-01-11T05:58:27.672Z,-6.67
2024-01-11T05:59:27.788Z,-6.66
2024-01-11T06:00:27.833Z,-6.67
2024-01-11T06:01:27.917Z,-6.69
2024-01-11T06:02:28.010Z,-6.69
2024-01-11T06:03:28.119Z,-6.72
2024-01-11T06:04:28.150Z,-6.74
2024-01-11T06:05:28.286Z,-6.79
2024-01-11T06:06:28.310Z,-6.82
2024-01-11T06:07:28.358Z,-6.92
2024-01-11T06:08:28.476Z,-6.93
2024-01-11T06:09:28.508Z,-6.93
2024-01-11T06:10:28.663Z,-6.93
2024-01-11T06:11:28.688Z,-6.93
2024-01-11T06:12:28.743Z,-6.93
2024-01-11T06:13:28.831Z,-6.93
2024-01-11T06:14:28.941Z,-6.93
2024-01-11T06:15:28.977Z,-6.92
2024-01-11T06:16:29.036Z,-6.92
2024-01-11T06:17:29.187Z,-6.90
2024-01-11T06:18:29.321Z,-6.89
2024-01-11T06:19:29.293Z,-6.87
2024-01-11T06:20:29.408Z,-6.89
2024-01-11T06:21:29.449Z,-6.89
2024-01-11T06:22:29.533Z,-6.85
2024-01-11T06:23:29.722Z,-6.85
2024-01-11T06:24:29.724Z,-6.87
2024-01-11T06:25:29.786Z,-6.90
2024-01-11T06:26:29.895Z,-6.92
2024-01-11T06:27:29.921Z,-6.93
2024-01-11T06:28:30.450Z,-6.95
2024-01-11T06:29:30.106Z,-6.99
2024-01-11T06:30:30.151Z,-6.99
2024-01-11T06:31:30.202Z,-7.00
2024-01-11T06:32:30.374Z,-7.00
2024-01-11T06:33:30.383Z,-7.02
2024-01-11T06:34:30.496Z,-7.05
2024-01-11T06:35:30.578Z,-7.08
2024-01-11T06:36:30.595Z,-7.05
2024-01-11T06:37:30.696Z,-7.03
2024-01-11T06:38:30.820Z,-7.00
2024-01-11T06:39:30.888Z,-6.99
2024-01-11T06:40:30.963Z,-6.98
2024-01-11T06:41:31.104Z,-6.96
2024-01-11T06:42:31.105Z,-6.93
2024-01-11T06:43:31.183Z,-6.93
2024-01-11T06:44:31.315Z,-6.92
2024-01-11T06:45:31.343Z,-6.95
2024-01-11T06:46:31.423Z,-6.98
2024-01-11T06:47:31.610Z,-6.99
2024-01-11T06:48:31.748Z,-6.99
2024-01-11T06:49:31.742Z,-7.02
2024-01-11T06:50:31.806Z,-7.03
2024-01-11T06:51:31.812Z,-7.08
2024-01-11T06:52:31.915Z,-7.08
2024-01-11T06:53:32.052Z,-7.10
2024-01-11T06:54:32.131Z,-7.10
2024-01-11T06:55:32.159Z,-7.11
2024-01-11T06:56:32.262Z,-7.08
2024-01-11T06:57:32.319Z,-7.07
2024-01-11T06:58:32.394Z,-7.03
2024-01-11T06:59:32.552Z,-7.05
2024-01-11T07:00:32.610Z,-7.07
2024-01-11T07:01:32.631Z,-7.07
2024-01-11T07:02:32.769Z,-7.08
2024-01-11T07:03:32.875Z,-7.08
2024-01-11T07:04:34.688Z,-7.07
2024-01-11T07:05:33.105Z,-7.08
2024-01-11T07:06:33.096Z,-7.11
2024-01-11T07:07:33.132Z,-7.10
2024-01-11T07:08:33.265Z,-7.11
2024-01-11T07:09:33.299Z,-7.11
2024-01-11T07:10:33.361Z,-7.07
2024-01-11T07:11:33.480Z,-7.07
2024-01-11T07:12:33.495Z,-7.08
2024-01-11T07:13:33.608Z,-7.08
2024-01-11T07:14:33.696Z,-7.08
2024-01-11T07:15:33.727Z,-7.08
2024-01-11T07:16:33.818Z,-7.10
2024-01-11T07:17:34.098Z,-7.11
2024-01-11T07:18:34.112Z,-7.11
2024-01-11T07:19:34.115Z,-7.16
2024-01-11T07:20:34.199Z,-7.14
2024-01-11T07:21:34.182Z,-7.08
2024-01-11T07:22:34.276Z,-7.07
2024-01-11T07:23:34.375Z,-7.08
2024-01-11T07:24:34.456Z,-7.08
2024-01-11T07:25:34.549Z,-7.08
2024-01-11T07:26:34.627Z,-7.10
2024-01-11T07:27:34.688Z,-7.11
2024-01-11T07:28:34.776Z,-7.13
2024-01-11T07:29:34.918Z,-7.14
2024-01-11T07:30:34.941Z,-7.16
2024-01-11T07:31:35.013Z,-7.16
2024-01-11T07:32:35.244Z,-7.17
2024-01-11T07:33:35.272Z,-7.16
2024-01-11T07:34:35.477Z,-7.16
2024-01-11T07:35:35.368Z,-7.17
2024-01-11T07:36:35.439Z,-7.17
2024-01-11T07:37:35.525Z,-7.16
2024-01-11T07:38:35.626Z,-7.13
2024-01-11T07:39:35.713Z,-7.11
2024-01-11T07:40:36.789Z,-7.14
2024-01-11T07:41:35.880Z,-7.17
2024-01-11T07:42:35.929Z,-7.13
2024-01-11T07:43:44.980Z,-7.08
2024-01-11T07:44:36.152Z,-7.05
2024-01-11T07:45:36.198Z,-7.05
2024-01-11T07:46:42.292Z,-7.05
2024-01-11T07:47:36.422Z,-7.02
2024-01-11T07:48:36.536Z,-7.05
2024-01-11T07:49:36.613Z,-7.05
2024-01-11T07:50:36.700Z,-7.07
2024-01-11T07:51:36.795Z,-7.05
2024-01-11T07:52:36.826Z,-7.05
2024-01-11T07:53:36.989Z,-7.02
2024-01-11T07:54:37.020Z,-7.00
2024-01-11T07:55:37.069Z,-6.99
2024-01-11T07:56:37.198Z,-6.96
2024-01-11T07:57:37.284Z,-6.95
2024-01-11T07:58:37.351Z,-6.92
2024-01-11T07:59:37.613Z,-6.90
2024-01-11T08:00:37.531Z,-6.85
2024-01-11T08:01:37.586Z,-6.72
2024-01-11T08:02:37.676Z,-6.53
2024-01-11T08:03:37.785Z,-6.35
2024-01-11T08:04:37.861Z,-6.19
2024-01-11T08:05:38.034Z,-6.03
2024-01-11T08:06:38.047Z,-5.88
2024-01-11T08:07:38.093Z,-5.67
2024-01-11T08:08:38.174Z,-5.57
2024-01-11T08:09:38.296Z,-5.57
2024-01-11T08:10:38.336Z,-5.48
2024-01-11T08:11:40.812Z,-5.34
2024-01-11T08:12:38.448Z,-5.27
2024-01-11T08:13:38.544Z,-5.25
2024-01-11T08:14:38.642Z,-5.16
2024-01-11T08:15:38.727Z,-5.03
2024-01-11T08:16:38.787Z,-4.84
2024-01-11T08:17:40.186Z,-4.54
2024-01-11T08:18:38.995Z,-4.36
2024-01-11T08:19:39.074Z,-4.27
2024-01-11T08:20:39.138Z,-4.19
2024-01-11T08:21:39.196Z,-4.20
2024-01-11T08:22:39.270Z,-4.33
2024-01-11T08:23:39.414Z,-4.48
2024-01-11T08:24:39.443Z,-4.62
2024-01-11T08:25:39.512Z,-4.73
2024-01-11T08:26:39.629Z,-4.83
2024-01-11T08:27:39.670Z,-4.85
2024-01-11T08:28:39.754Z,-4.85
2024-01-11T08:29:40.078Z,-4.90
2024-01-11T08:30:39.930Z,-4.93
2024-01-11T08:31:40.556Z,-4.93
2024-01-11T08:32:40.626Z,-4.91
2024-01-11T08:33:40.443Z,-4.88
2024-01-11T08:34:40.434Z,-4.84
2024-01-11T08:35:40.409Z,-4.77
2024-01-11T08:36:40.410Z,-4.73
2024-01-11T08:37:40.622Z,-4.67
2024-01-11T08:38:40.712Z,-4.51
2024-01-11T08:39:43.336Z,-4.22
2024-01-11T08:40:40.749Z,-3.91
2024-01-11T08:41:40.883Z,-3.52
2024-01-11T08:42:40.872Z,-3.05
2024-01-11T08:43:40.993Z,-2.64
2024-01-11T08:44:41.228Z,-2.29
2024-01-11T08:45:41.206Z,-2.14
2024-01-11T08:46:41.263Z,-2.13
2024-01-11T08:47:41.535Z,-2.01
2024-01-11T08:48:41.691Z,-1.78
2024-01-11T08:49:41.525Z,-1.50
2024-01-11T08:50:41.675Z,-1.17
2024-01-11T08:51:41.680Z,-0.93
2024-01-11T08:52:41.736Z,-0.80
2024-01-11T08:53:41.867Z,-0.59
2024-01-11T08:54:41.938Z,-0.27
2024-01-11T08:55:44.433Z,0.05
2024-01-11T08:56:42.193Z,0.44
2024-01-11T08:57:42.148Z,0.82
2024-01-11T08:58:42.211Z,1.28
2024-01-11T08:59:42.403Z,1.81
2024-01-11T09:00:42.459Z,2.36
2024-01-11T09:01:47.221Z,2.95
2024-01-11T09:02:42.537Z,3.57
2024-01-11T09:03:42.698Z,4.07
2024-01-11T09:04:42.755Z,4.47
2024-01-11T09:05:42.916Z,4.83
2024-01-11T09:06:42.944Z,5.19
2024-01-11T09:07:42.914Z,5.51
2024-01-11T09:08:43.084Z,5.70
2024-01-11T09:09:47.823Z,5.84
2024-01-11T09:10:43.260Z,6.02
2024-01-11T09:11:43.353Z,6.28
2024-01-11T09:12:43.301Z,6.54
2024-01-11T09:13:43.367Z,6.76
2024-01-11T09:14:43.601Z,7.00
2024-01-11T09:15:43.575Z,7.26
2024-01-11T09:16:43.653Z,7.50
2024-01-11T09:17:43.789Z,7.73
2024-01-11T09:18:45.729Z,7.91
2024-01-11T09:19:43.986Z,7.96
2024-01-11T09:20:44.020Z,8.06
2024-01-11T09:21:44.051Z,8.21
2024-01-11T09:22:44.126Z,8.24
2024-01-11T09:23:44.283Z,8.42
2024-01-11T09:24:44.313Z,8.61
2024-01-11T09:25:44.393Z,8.54
2024-01-11T09:26:44.534Z,8.12
2024-01-11T09:27:44.570Z,8.00
2024-01-11T09:28:44.652Z,8.04
2024-01-11T09:29:45.010Z,8.22
2024-01-11T09:30:44.858Z,8.43
2024-01-11T09:31:44.893Z,8.58
2024-01-11T09:32:45.128Z,8.65
2024-01-11T09:33:45.181Z,8.68
2024-01-11T09:34:45.197Z,8.76
2024-01-11T09:35:45.252Z,8.91
2024-01-11T09:36:45.297Z,9.03
2024-01-11T09:37:45.391Z,9.26
2024-01-11T09:38:45.608Z,9.44
2024-01-11T09:39:45.558Z,9.31
2024-01-11T09:40:45.603Z,9.26
2024-01-11T09:41:45.776Z,9.37
2024-01-11T09:42:45.792Z,9.48
2024-01-11T09:43:45.871Z,9.59
2024-01-11T09:44:46.027Z,9.30
2024-01-11T09:45:46.116Z,9.24
2024-01-11T09:46:46.100Z,9.40
2024-01-11T09:47:46.247Z,9.56
2024-01-11T09:48:46.377Z,9.56
2024-01-11T09:49:46.449Z,9.53
2024-01-11T09:50:46.644Z,9.55
2024-01-11T09:51:46.521Z,9.55
2024-01-11T09:52:46.580Z,9.55
2024-01-11T09:53:46.677Z,9.55
2024-01-11T09:54:46.765Z,9.42
2024-01-11T09:55:46.878Z,9.50
2024-01-11T09:56:46.943Z,9.70
2024-01-11T09:57:47.008Z,9.83
2024-01-11T09:58:47.073Z,9.98
2024-01-11T09:59:47.204Z,10.04
2024-01-11T10:00:47.263Z,10.02
2024-01-11T10:01:47.339Z,10.06
2024-01-11T10:02:47.493Z,10.07
2024-01-11T10:03:47.703Z,10.01
2024-01-11T10:04:47.574Z,10.07
2024-01-11T10:05:47.683Z,9.50
2024-01-11T10:06:47.742Z,8.93
2024-01-11T10:07:47.776Z,8.88
2024-01-11T10:08:47.885Z,8.86
2024-01-11T10:09:47.928Z,9.01
2024-01-11T10:10:47.971Z,9.23
2024-01-11T10:11:48.179Z,9.12
2024-01-11T10:12:48.209Z,9.04
2024-01-11T10:13:48.242Z,8.89
2024-01-11T10:14:48.495Z,9.04
2024-01-11T10:15:48.419Z,8.86
2024-01-11T10:16:48.522Z,8.37
2024-01-11T10:17:48.802Z,8.17
2024-01-11T10:18:48.845Z,7.66
2024-01-11T10:19:49.052Z,7.34
2024-01-11T10:20:48.928Z,7.15
2024-01-11T10:21:48.891Z,6.93
2024-01-11T10:22:48.973Z,6.69
2024-01-11T10:23:49.105Z,6.51
2024-01-11T10:24:49.172Z,6.45
2024-01-11T10:25:49.211Z,6.02
2024-01-11T10:26:49.341Z,5.78
2024-01-11T10:27:49.373Z,4.96
2024-01-11T10:28:49.482Z,4.07
2024-01-11T10:29:49.640Z,3.42
2024-01-11T10:30:49.872Z,3.04
2024-01-11T10:31:49.722Z,2.83
2024-01-11T10:32:49.972Z,2.65
2024-01-11T10:33:50.090Z,2.41
2024-01-11T10:34:49.990Z,2.00
2024-01-11T10:35:50.067Z,1.75
2024-01-11T10:36:50.127Z,1.60
2024-01-11T10:37:50.246Z,1.50
2024-01-11T10:38:50.271Z,1.26
2024-01-11T10:39:50.380Z,1.10
2024-01-11T10:40:50.439Z,0.92
2024-01-11T10:41:50.502Z,0.72
2024-01-11T10:42:50.641Z,0.52
2024-01-11T10:43:50.667Z,0.35
2024-01-11T10:44:50.786Z,0.26
2024-01-11T10:45:50.833Z,0.22
2024-01-11T10:46:50.907Z,0.15
2024-01-11T10:47:51.047Z,0.07
2024-01-11T10:48:51.087Z,0.05
2024-01-11T10:49:51.162Z,-0.02
2024-01-11T10:50:51.279Z,-0.08
2024-01-11T10:51:51.325Z,-0.12
2024-01-11T10:52:51.391Z,-0.19
2024-01-11T10:53:51.650Z,-0.27
2024-01-11T10:54:51.574Z,-0.37
2024-01-11T10:55:51.647Z,-0.41
2024-01-11T10:56:51.757Z,-0.52
2024-01-11T10:57:51.811Z,-0.58
2024-01-11T10:58:51.845Z,-0.70
2024-01-11T10:59:51.991Z,-0.76
2024-01-11T11:00:52.067Z,-0.89
2024-01-11T11:01:52.083Z,-0.95
2024-01-11T11:02:52.350Z,-1.00
2024-01-11T11:03:52.261Z,-1.03
2024-01-11T11:04:52.335Z,-1.05
2024-01-11T11:05:52.555Z,-1.05
2024-01-11T11:06:52.560Z,-1.05
2024-01-11T11:07:52.592Z,-1.08
2024-01-11T11:08:52.677Z,-1.07
2024-01-11T11:09:52.961Z,-1.13
2024-01-11T11:10:52.840Z,-1.17
2024-01-11T11:11:52.896Z,-1.18
2024-01-11T11:12:52.989Z,-1.23
2024-01-11T11:13:53.090Z,-1.31
2024-01-11T11:14:53.261Z,-1.32
2024-01-11T11:15:53.297Z,-1.36
2024-01-11T11:16:53.324Z,-1.36
2024-01-11T11:17:53.537Z,-1.39
2024-01-11T11:18:53.606Z,-1.43
2024-01-11T11:19:53.577Z,-1.44
2024-01-11T11:20:53.637Z,-1.44
2024-01-11T11:21:53.717Z,-1.44
2024-01-11T11:22:53.783Z,-1.44
2024-01-11T11:23:53.871Z,-1.46
2024-01-11T11:24:53.953Z,-1.47
2024-01-11T11:25:54.016Z,-1.54
2024-01-11T11:26:54.118Z,-1.56
2024-01-11T11:27:54.170Z,-1.53
2024-01-11T11:28:54.243Z,-1.51
2024-01-11T11:29:54.349Z,-1.50
2024-01-11T11:30:54.636Z,-1.50
2024-01-11T11:31:54.498Z,-1.47
2024-01-11T11:32:54.708Z,-1.43
2024-01-11T11:33:54.716Z,-1.39
2024-01-11T11:34:54.778Z,-1.36
2024-01-11T11:35:54.834Z,-1.36
2024-01-11T11:36:54.887Z,-1.35
2024-01-11T11:37:54.961Z,-1.36
2024-01-11T11:38:55.052Z,-1.35
2024-01-11T11:39:55.143Z,-1.32
2024-01-11T11:40:55.203Z,-1.31
2024-01-11T11:41:55.300Z,-1.29
2024-01-11T11:42:55.365Z,-1.26
2024-01-11T11:43:55.442Z,-1.26
2024-01-11T11:44:55.541Z,-1.26
2024-01-11T11:45:55.594Z,-1.28
2024-01-11T11:46:55.676Z,-1.26
2024-01-11T11:47:55.859Z,-1.26
2024-01-11T11:48:56.097Z,-1.26
2024-01-11T11:49:55.920Z,-1.26
2024-01-11T11:50:56.004Z,-1.25
2024-01-11T11:51:56.069Z,-1.23
2024-01-11T11:52:56.147Z,-1.20
2024-01-11T11:53:56.411Z,-1.17
2024-01-11T11:54:56.360Z,-1.14
2024-01-11T11:55:56.395Z,-1.14
2024-01-11T11:56:57.022Z,-1.15
2024-01-11T11:57:56.546Z,-1.13
2024-01-11T11:58:56.969Z,-1.13
2024-01-11T11:59:56.757Z,-1.11
2024-01-11T12:00:56.834Z,-1.08
2024-01-11T12:01:56.881Z,-1.10
2024-01-11T12:02:57.145Z,-1.08
2024-01-11T12:03:57.049Z,-1.08
2024-01-11T12:04:57.181Z,-1.08
2024-01-11T12:05:57.274Z,-1.08
2024-01-11T12:06:57.387Z,-1.05
2024-01-11T12:07:57.373Z,-1.02
2024-01-11T12:08:58.522Z,-1.02
2024-01-11T12:09:57.545Z,-1.00
2024-01-11T12:10:57.600Z,-0.99
2024-01-11T12:12:02.802Z,-0.99
2024-01-11T12:12:57.735Z,-0.99
2024-01-11T12:13:57.801Z,-0.99
2024-01-11T12:14:57.883Z,-0.99
2024-01-11T12:15:57.967Z,-1.00
2024-01-11T12:16:58.074Z,-0.97
2024-01-11T12:17:58.282Z,-0.97
2024-01-11T12:18:58.363Z,-0.97
2024-01-11T12:19:58.292Z,-0.96
2024-01-11T12:20:58.354Z,-0.96
2024-01-11T12:21:58.442Z,-0.97
2024-01-11T12:22:58.572Z,-0.96
2024-01-11T12:23:58.604Z,-0.96
2024-01-11T12:24:58.737Z,-0.96
2024-01-11T12:25:58.758Z,-0.97
2024-01-11T12:26:59.019Z,-0.99
2024-01-11T12:27:58.951Z,-0.97
2024-01-11T12:28:59.050Z,-0.95
2024-01-11T12:29:59.953Z,-0.96
2024-01-11T12:30:59.422Z,-0.95
2024-01-11T12:31:59.331Z,-0.95
2024-01-11T12:32:59.477Z,-0.93
2024-01-11T12:33:59.536Z,-0.93
2024-01-11T12:34:59.609Z,-0.92
2024-01-11T12:35:59.611Z,-0.90
2024-01-11T12:36:59.669Z,-0.90
2024-01-11T12:37:59.736Z,-0.89
2024-01-11T12:38:59.901Z,-0.89
2024-01-11T12:39:59.894Z,-0.89
2024-01-11T12:41:00.001Z,-0.86
2024-01-11T12:42:00.071Z,-0.83
2024-01-11T12:43:00.158Z,-0.85
2024-01-11T12:44:00.235Z,-0.80
2024-01-11T12:45:00.652Z,-0.80
2024-01-11T12:46:00.379Z,-0.78
2024-01-11T12:47:00.455Z,-0.78
2024-01-11T12:48:00.710Z,-0.78
2024-01-11T12:49:00.715Z,-0.77
2024-01-11T12:50:00.718Z,-0.74
2024-01-11T12:51:10.669Z,-0.73
2024-01-11T12:52:00.872Z,-0.73
2024-01-11T12:53:00.971Z,-0.71
2024-01-11T12:54:01.020Z,-0.70
2024-01-11T12:55:01.118Z,-0.67
2024-01-11T12:56:01.297Z,-0.68
2024-01-11T12:57:01.427Z,-0.68
2024-01-11T12:58:01.322Z,-0.70